createdAt,value
2023-05-22T00:00:35.182Z,94169.47
2023-05-22T00:03:02.866Z,94165.75
2023-05-22T00:05:30.669Z,94169.19
2023-05-22T00:07:57.906Z,94162.53
2023-05-22T00:10:24.645Z,94163.28
2023-05-22T00:12:51.445Z,94167.41
2023-05-22T00:15:18.568Z,94166.09
2023-05-22T00:17:45.756Z,94167.16
2023-05-22T00:20:13.352Z,94168.38
2023-05-22T00:22:40.184Z,94173.50
2023-05-22T00:25:07.842Z,94170.91
2023-05-22T00:27:34.948Z,94163.50
2023-05-22T00:30:02.162Z,94159.69
2023-05-22T00:32:29.055Z,94166.09
2023-05-22T00:34:55.931Z,94162.47
2023-05-22T00:37:23.045Z,94159.63
2023-05-22T00:39:50.093Z,94159.94
2023-05-22T00:42:17.308Z,94164.28
2023-05-22T00:44:44.121Z,94160.66
2023-05-22T00:47:11.387Z,94158.59
2023-05-22T00:49:41.732Z,94154.47
2023-05-22T00:52:09.165Z,94161.59
2023-05-22T00:54:36.432Z,94159.03
2023-05-22T00:57:06.174Z,94156.41
2023-05-22T00:59:33.468Z,94147.94
2023-05-22T01:02:01.214Z,94149.00
2023-05-22T01:04:28.061Z,94144.44
2023-05-22T01:06:55.199Z,94142.19
2023-05-22T01:09:22.585Z,94143.75
2023-05-22T01:11:55.563Z,94143.69
2023-05-22T01:14:53.227Z,94148.13
2023-05-22T01:18:02.767Z,94140.44
2023-05-22T01:20:32.300Z,94143.38
2023-05-22T01:23:25.182Z,94145.59
2023-05-22T01:26:02.277Z,94141.50
2023-05-22T01:29:03.434Z,94141.22
2023-05-22T01:31:32.931Z,94145.31
2023-05-22T01:34:01.032Z,94137.34
2023-05-22T01:36:29.866Z,94148.50
2023-05-22T01:38:56.780Z,94154.56
2023-05-22T01:41:23.860Z,94150.41
2023-05-22T01:43:50.705Z,94155.75
2023-05-22T01:46:18.047Z,94145.13
2023-05-22T01:48:47.757Z,94146.28
2023-05-22T01:51:35.198Z,94151.03
2023-05-22T01:54:21.831Z,94151.03
2023-05-22T01:57:05.714Z,94147.16
2023-05-22T01:59:48.120Z,94154.13
2023-05-22T02:02:16.657Z,94152.09
2023-05-22T02:04:49.466Z,94155.69
2023-05-22T02:07:16.542Z,94160.31
2023-05-22T02:09:46.184Z,94154.06
2023-05-22T02:12:13.361Z,94152.22
2023-05-22T02:14:41.155Z,94147.31
2023-05-22T02:17:08.329Z,94140.41
2023-05-22T02:19:35.585Z,94146.06
2023-05-22T02:22:02.598Z,94146.09
2023-05-22T02:24:31.570Z,94146.59
2023-05-22T02:27:01.620Z,94156.94
2023-05-22T02:29:29.917Z,94164.13
2023-05-22T02:31:56.761Z,94161.50
2023-05-22T02:34:23.899Z,94155.13
2023-05-22T02:36:52.068Z,94153.34
2023-05-22T02:39:21.688Z,94159.47
2023-05-22T02:41:51.371Z,94163.41
2023-05-22T02:44:18.540Z,94154.91
2023-05-22T02:46:45.378Z,94151.59
2023-05-22T02:49:12.548Z,94162.31
2023-05-22T02:51:39.370Z,94149.22
2023-05-22T02:54:07.403Z,94154.28
2023-05-22T02:56:36.959Z,94153.78
2023-05-22T02:59:04.070Z,94149.97
2023-05-22T03:01:31.197Z,94158.91
2023-05-22T03:03:58.159Z,94154.50
2023-05-22T03:06:25.354Z,94151.97
2023-05-22T03:08:52.505Z,94149.16
2023-05-22T03:11:22.262Z,94154.84
2023-05-22T03:13:50.282Z,94154.34
2023-05-22T03:16:17.133Z,94153.28
2023-05-22T03:18:44.349Z,94157.31
2023-05-22T03:21:11.327Z,94148.81
2023-05-22T03:23:38.742Z,94156.72
2023-05-22T03:26:06.207Z,94152.84
2023-05-22T03:28:33.394Z,94148.47
2023-05-22T03:31:00.458Z,94155.09
2023-05-22T03:33:29.917Z,94147.50
2023-05-22T03:35:57.068Z,94155.13
2023-05-22T03:38:26.593Z,94152.81
2023-05-22T03:40:53.316Z,94156.44
2023-05-22T03:43:20.425Z,94161.22
2023-05-22T03:45:47.647Z,94162.22
2023-05-22T03:48:14.477Z,94174.19
2023-05-22T03:50:41.518Z,94170.16
2023-05-22T03:53:09.886Z,94178.31
2023-05-22T03:55:36.997Z,94175.47
2023-05-22T03:58:04.377Z,94176.50
2023-05-22T04:00:31.564Z,94175.75
2023-05-22T04:02:58.616Z,94174.97
2023-05-22T04:05:25.714Z,94170.13
2023-05-22T04:07:52.581Z,94174.25
2023-05-22T04:10:19.630Z,94174.25
2023-05-22T04:12:47.862Z,94172.75
2023-05-22T04:15:15.143Z,94175.03
2023-05-22T04:17:44.902Z,94176.34
2023-05-22T04:20:13.069Z,94186.75
2023-05-22T04:22:40.348Z,94180.97
2023-05-22T04:25:07.410Z,94181.09
2023-05-22T04:27:34.537Z,94175.03
2023-05-22T04:30:01.394Z,94185.53
2023-05-22T04:32:31.033Z,94178.09
2023-05-22T04:35:00.782Z,94183.22
2023-05-22T04:37:28.976Z,94176.06
2023-05-22T04:39:56.124Z,94170.56
2023-05-22T04:42:23.276Z,94181.69
2023-05-22T04:44:50.035Z,94176.19
2023-05-22T04:47:20.031Z,94183.09
2023-05-22T04:49:47.180Z,94182.66
2023-05-22T04:52:14.279Z,94176.28
2023-05-22T04:54:44.089Z,94188.56
2023-05-22T04:57:11.255Z,94186.66
2023-05-22T04:59:39.021Z,94186.97
2023-05-22T05:02:08.682Z,94189.34
2023-05-22T05:04:38.283Z,94185.63
2023-05-22T05:07:06.181Z,94188.13
2023-05-22T05:09:33.194Z,94186.13
2023-05-22T05:12:00.268Z,94192.50
2023-05-22T05:14:27.356Z,94198.69
2023-05-22T05:16:54.550Z,94199.81
2023-05-22T05:19:21.883Z,94193.28
2023-05-22T05:21:51.728Z,94192.19
2023-05-22T05:24:19.094Z,94195.56
2023-05-22T05:26:45.820Z,94194.00
2023-05-22T05:29:12.904Z,94194.44
2023-05-22T05:31:40.162Z,94189.28
2023-05-22T05:34:06.937Z,94182.19
2023-05-22T05:36:34.324Z,94185.06
2023-05-22T05:39:01.084Z,94183.50
2023-05-22T05:41:28.464Z,94183.75
2023-05-22T05:43:55.161Z,94173.56
2023-05-22T05:46:22.331Z,94179.59
2023-05-22T05:48:49.469Z,94188.25
2023-05-22T05:51:16.517Z,94181.09
2023-05-22T05:53:43.323Z,94183.75
2023-05-22T05:56:10.484Z,94179.72
2023-05-22T05:58:37.929Z,94175.34
2023-05-22T06:01:05.481Z,94186.28
2023-05-22T06:03:33.277Z,94186.59
2023-05-22T06:06:00.193Z,94200.16
2023-05-22T06:08:27.293Z,94194.56
2023-05-22T06:10:55.376Z,94188.13
2023-05-22T06:13:22.897Z,94195.13
2023-05-22T06:15:51.007Z,94189.91
2023-05-22T06:18:18.106Z,94190.47
2023-05-22T06:20:47.658Z,94193.72
2023-05-22T06:23:15.006Z,94185.88
2023-05-22T06:25:42.212Z,94194.50
2023-05-22T06:28:10.044Z,94187.16
2023-05-22T06:30:40.172Z,94194.50
2023-05-22T06:33:10.271Z,94192.44
2023-05-22T06:35:38.467Z,94191.69
2023-05-22T06:38:08.107Z,94195.56
2023-05-22T06:40:37.852Z,94197.94
2023-05-22T06:43:05.636Z,94202.72
2023-05-22T06:45:32.755Z,94195.72
2023-05-22T06:48:01.220Z,94200.78
2023-05-22T06:50:30.985Z,94202.94
2023-05-22T06:52:58.157Z,94203.72
2023-05-22T06:55:26.616Z,94202.94
2023-05-22T06:57:53.684Z,94207.03
2023-05-22T07:00:23.666Z,94204.97
2023-05-22T07:02:50.894Z,94199.88
2023-05-22T07:05:19.581Z,94213.47
2023-05-22T07:07:47.062Z,94205.78
2023-05-22T07:10:14.137Z,94207.56
2023-05-22T07:12:43.839Z,94208.53
2023-05-22T07:15:11.003Z,94206.25
2023-05-22T07:17:37.983Z,94212.81
2023-05-22T07:20:06.386Z,94209.63
2023-05-22T07:22:33.900Z,94212.81
2023-05-22T07:25:00.986Z,94204.81
2023-05-22T07:27:29.044Z,94219.38
2023-05-22T07:29:56.105Z,94213.78
2023-05-22T07:32:22.867Z,94216.31
2023-05-22T07:34:49.957Z,94214.47
2023-05-22T07:37:17.039Z,94218.41
2023-05-22T07:39:44.761Z,94222.88
2023-05-22T07:42:11.900Z,94228.38
2023-05-22T07:44:38.968Z,94224.59
2023-05-22T07:47:06.388Z,94231.66
2023-05-22T07:49:33.521Z,94224.03
2023-05-22T07:52:00.281Z,94216.91
2023-05-22T07:54:27.430Z,94222.22
2023-05-22T07:56:54.518Z,94214.34
2023-05-22T07:59:22.396Z,94219.69
2023-05-22T08:01:49.866Z,94212.13
2023-05-22T08:04:17.243Z,94217.31
2023-05-22T08:06:47.180Z,94217.84
2023-05-22T08:09:17.015Z,94217.16
2023-05-22T08:11:43.763Z,94215.03
2023-05-22T08:14:10.906Z,94211.06
2023-05-22T08:16:37.769Z,94212.13
2023-05-22T08:19:05.604Z,94210.22
2023-05-22T08:21:35.410Z,94206.44
2023-05-22T08:24:02.212Z,94211.06
2023-05-22T08:26:30.146Z,94209.06
2023-05-22T08:28:59.394Z,94207.88
2023-05-22T08:31:26.569Z,94197.75
2023-05-22T08:33:55.422Z,94196.56
2023-05-22T08:36:23.153Z,94199.97
2023-05-22T08:38:49.903Z,94196.56
2023-05-22T08:41:17.005Z,94199.06
2023-05-22T08:43:44.099Z,94194.59
2023-05-22T08:46:11.130Z,94197.59
2023-05-22T08:48:37.883Z,94193.34
2023-05-22T08:51:05.455Z,94201.22
2023-05-22T08:53:36.639Z,94195.78
2023-05-22T08:56:06.982Z,94193.66
2023-05-22T08:58:35.541Z,94190.81
2023-05-22T09:01:04.411Z,94197.78
2023-05-22T09:03:31.600Z,94199.50
2023-05-22T09:05:59.331Z,94188.72
2023-05-22T09:08:26.262Z,94183.88
2023-05-22T09:10:53.112Z,94184.78
2023-05-22T09:13:27.554Z,94190.06
2023-05-22T09:15:58.442Z,94176.81
2023-05-22T09:18:28.416Z,94183.53
2023-05-22T09:21:00.048Z,94180.47
2023-05-22T09:23:27.655Z,94176.28
2023-05-22T09:25:55.593Z,94181.16
2023-05-22T09:28:22.857Z,94179.88
2023-05-22T09:30:53.435Z,94177.25
2023-05-22T09:33:20.476Z,94171.53
2023-05-22T09:35:48.402Z,94172.94
2023-05-22T09:38:15.310Z,94170.72
2023-05-22T09:40:42.861Z,94173.66
2023-05-22T09:43:12.738Z,94180.25
2023-05-22T09:45:39.459Z,94166.84
2023-05-22T09:48:06.860Z,94168.38
2023-05-22T09:50:34.167Z,94175.63
2023-05-22T09:53:04.397Z,94171.81
2023-05-22T09:55:31.261Z,94172.59
2023-05-22T09:58:01.333Z,94173.91
2023-05-22T10:00:28.067Z,94169.88
2023-05-22T10:03:28.528Z,94163.44
2023-05-22T10:05:55.644Z,94171.06
2023-05-22T10:08:29.779Z,94165.13
2023-05-22T10:10:56.845Z,94161.94
2023-05-22T10:13:24.283Z,94165.38
2023-05-22T10:15:51.398Z,94164.34
2023-05-22T10:18:18.331Z,94164.63
2023-05-22T10:20:45.533Z,94165.09
2023-05-22T10:23:12.866Z,94151.81
2023-05-22T10:25:39.941Z,94154.78
2023-05-22T10:28:06.871Z,94157.22
2023-05-22T10:31:08.203Z,94146.28
2023-05-22T10:33:43.178Z,94145.34
2023-05-22T10:36:13.352Z,94144.50
2023-05-22T10:39:17.511Z,94142.84
2023-05-22T10:41:44.601Z,94150.09
2023-05-22T10:44:12.142Z,94150.53
2023-05-22T10:46:38.965Z,94151.91
2023-05-22T10:49:06.039Z,94148.91
2023-05-22T10:51:33.335Z,94154.03
2023-05-22T10:54:00.550Z,94155.97
2023-05-22T10:56:32.976Z,94143.06
2023-05-22T10:59:00.897Z,94147.75
2023-05-22T11:01:28.183Z,94145.03
2023-05-22T11:04:02.172Z,94147.94
2023-05-22T11:06:45.888Z,94149.88
2023-05-22T11:09:28.324Z,94141.88
2023-05-22T11:12:33.577Z,94132.75
2023-05-22T11:15:12.513Z,94128.13
2023-05-22T11:17:47.531Z,94131.19
2023-05-22T11:20:22.018Z,94133.78
2023-05-22T11:23:07.311Z,94123.25
2023-05-22T11:25:35.799Z,94128.38
2023-05-22T11:28:03.416Z,94130.31
2023-05-22T11:30:30.221Z,94130.22
2023-05-22T11:32:58.200Z,94121.50
2023-05-22T11:35:27.829Z,94124.13
2023-05-22T11:37:55.018Z,94120.63
2023-05-22T11:40:22.840Z,94114.88
2023-05-22T11:42:52.605Z,94105.69
2023-05-22T11:45:19.433Z,94111.22
2023-05-22T11:47:46.537Z,94110.28
2023-05-22T11:50:13.489Z,94104.69
2023-05-22T11:52:41.935Z,94106.94
2023-05-22T11:55:10.323Z,94101.88
2023-05-22T11:57:39.975Z,94110.50
2023-05-22T12:00:10.109Z,94111.13
2023-05-22T12:02:37.605Z,94101.78
2023-05-22T12:05:05.640Z,94097.28
2023-05-22T12:07:32.848Z,94089.00
2023-05-22T12:09:59.929Z,94091.44
2023-05-22T12:12:27.035Z,94085.94
2023-05-22T12:14:53.856Z,94084.50
2023-05-22T12:17:20.940Z,94084.31
2023-05-22T12:19:47.993Z,94085.72
2023-05-22T12:22:14.827Z,94085.97
2023-05-22T12:24:45.517Z,94079.47
2023-05-22T12:27:12.485Z,94075.38
2023-05-22T12:29:39.541Z,94075.16
2023-05-22T12:32:10.443Z,94066.56
2023-05-22T12:34:44.864Z,94065.81
2023-05-22T12:37:21.705Z,94066.81
2023-05-22T12:39:58.478Z,94063.19
2023-05-22T12:42:26.090Z,94065.78
2023-05-22T12:44:53.555Z,94065.66
2023-05-22T12:47:20.368Z,94061.69
2023-05-22T12:49:48.217Z,94050.03
2023-05-22T12:52:15.420Z,94068.25
2023-05-22T12:54:42.213Z,94063.69
2023-05-22T12:57:09.791Z,94078.44
2023-05-22T12:59:37.025Z,94068.09
2023-05-22T13:02:07.193Z,94072.00
2023-05-22T13:04:34.297Z,94076.91
2023-05-22T13:07:01.104Z,94075.47
2023-05-22T13:09:30.639Z,94067.38
2023-05-22T13:11:57.743Z,94067.81
2023-05-22T13:14:25.385Z,94060.84
2023-05-22T13:16:52.128Z,94060.47
2023-05-22T13:19:21.705Z,94066.25
2023-05-22T13:21:48.448Z,94069.94
2023-05-22T13:24:15.300Z,94074.03
2023-05-22T13:26:42.451Z,94071.75
2023-05-22T13:29:09.556Z,94062.38
2023-05-22T13:31:36.769Z,94052.81
2023-05-22T13:34:05.318Z,94059.59
2023-05-22T13:36:35.019Z,94052.78
2023-05-22T13:39:03.072Z,94045.78
2023-05-22T13:41:30.195Z,94042.53
2023-05-22T13:43:57.251Z,94042.66
2023-05-22T13:46:25.323Z,94035.69
2023-05-22T13:48:52.461Z,94044.38
2023-05-22T13:51:19.556Z,94045.66
2023-05-22T13:53:46.633Z,94050.88
2023-05-22T13:56:13.699Z,94075.28
2023-05-22T13:58:40.830Z,94078.69
2023-05-22T14:01:10.699Z,94091.19
2023-05-22T14:03:38.011Z,94083.06
2023-05-22T14:06:04.950Z,94086.41
2023-05-22T14:08:31.682Z,94083.84
2023-05-22T14:10:58.796Z,94068.75
2023-05-22T14:13:25.721Z,94073.84
2023-05-22T14:15:52.787Z,94073.34
2023-05-22T14:18:19.985Z,94069.78
2023-05-22T14:20:46.754Z,94071.25
2023-05-22T14:23:14.752Z,94062.22
2023-05-22T14:25:41.832Z,94063.84
2023-05-22T14:28:12.109Z,94059.38
2023-05-22T14:30:39.028Z,94049.44
2023-05-22T14:33:06.171Z,94054.31
2023-05-22T14:35:33.258Z,94048.75
2023-05-22T14:38:00.061Z,94045.09
2023-05-22T14:40:26.882Z,94046.81
2023-05-22T14:42:54.300Z,94048.47
2023-05-22T14:45:21.993Z,94042.00
2023-05-22T14:47:49.145Z,94036.34
2023-05-22T14:50:19.829Z,94035.25
2023-05-22T14:52:48.006Z,94031.41
2023-05-22T14:55:14.942Z,94030.22
2023-05-22T14:57:42.075Z,94030.38
2023-05-22T15:00:11.841Z,94028.50
2023-05-22T15:02:39.444Z,94028.59
2023-05-22T15:05:09.278Z,94034.69
2023-05-22T15:10:09.475Z,94042.44
2023-05-22T15:12:37.892Z,94031.44
2023-05-22T15:15:05.037Z,94028.06
2023-05-22T15:17:32.212Z,94027.63
2023-05-22T15:19:59.071Z,94024.53
2023-05-22T15:22:25.872Z,94035.13
2023-05-22T15:25:10.932Z,94024.59
2023-05-22T15:27:38.398Z,94032.47
2023-05-22T15:30:07.089Z,94032.34
2023-05-22T15:32:33.897Z,94038.25
2023-05-22T15:35:00.743Z,94034.00
2023-05-22T15:37:29.152Z,94033.91
2023-05-22T15:39:57.962Z,94024.16
2023-05-22T15:42:25.115Z,94022.63
2023-05-22T15:44:51.969Z,94022.06
2023-05-22T15:47:19.291Z,94028.53
2023-05-22T15:49:46.423Z,94025.47
2023-05-22T15:52:13.264Z,94025.78
2023-05-22T15:54:42.804Z,94028.94
2023-05-22T15:57:12.383Z,94026.84
2023-05-22T15:59:41.914Z,94030.81
2023-05-22T16:02:09.708Z,94027.19
2023-05-22T16:04:39.234Z,94032.88
2023-05-22T16:07:06.441Z,94031.13
2023-05-22T16:09:33.978Z,94034.97
2023-05-22T16:12:03.680Z,94027.59
2023-05-22T16:14:33.494Z,94030.66
2023-05-22T16:17:00.640Z,94048.03
2023-05-22T16:19:30.014Z,94049.31
2023-05-22T16:24:55.150Z,94066.31
2023-05-22T16:27:22.210Z,94076.34
2023-05-22T16:29:49.106Z,94079.47
2023-05-22T16:34:43.925Z,94079.84
2023-05-22T16:37:11.015Z,94079.91
2023-05-22T16:39:37.845Z,94078.31
2023-05-22T16:42:06.028Z,94078.56
2023-05-22T16:44:33.289Z,94068.09
2023-05-22T16:47:00.643Z,94067.13
2023-05-22T16:49:27.761Z,94078.41
2023-05-22T16:51:54.968Z,94081.44
2023-05-22T16:54:21.916Z,94092.13
2023-05-22T16:56:48.961Z,94096.00
2023-05-22T16:59:15.858Z,94098.72
2023-05-22T17:01:43.108Z,94100.47
2023-05-22T17:04:10.176Z,94096.81
2023-05-22T17:06:38.233Z,94098.41
2023-05-22T17:09:04.944Z,94093.81
2023-05-22T17:11:34.630Z,94079.56
2023-05-22T17:14:01.714Z,94082.31
2023-05-22T17:16:29.808Z,94074.25
2023-05-22T17:18:57.037Z,94079.63
2023-05-22T17:21:24.904Z,94079.19
2023-05-22T17:23:52.028Z,94084.94
2023-05-22T17:26:19.197Z,94086.97
2023-05-22T17:28:47.577Z,94107.47
2023-05-22T17:31:14.562Z,94104.41
2023-05-22T17:33:41.340Z,94104.50
2023-05-22T17:36:08.436Z,94107.69
2023-05-22T17:38:36.346Z,94107.00
2023-05-22T17:41:03.478Z,94109.53
2023-05-22T17:43:30.657Z,94110.44
2023-05-22T17:46:02.170Z,94108.69
2023-05-22T17:48:29.994Z,94113.72
2023-05-22T17:50:58.311Z,94113.28
2023-05-22T17:53:26.543Z,94116.81
2023-05-22T17:55:53.614Z,94111.66
2023-05-22T17:58:20.740Z,94126.75
2023-05-22T18:00:49.008Z,94125.00
2023-05-22T18:03:17.186Z,94122.19
2023-05-22T18:05:44.352Z,94127.72
2023-05-22T18:08:11.453Z,94127.00
2023-05-22T18:10:39.644Z,94133.09
2023-05-22T18:13:07.000Z,94134.16
2023-05-22T18:15:36.728Z,94138.53
2023-05-22T18:18:06.443Z,94143.94
2023-05-22T18:20:33.551Z,94134.41
2023-05-22T18:23:00.631Z,94144.91
2023-05-22T18:25:29.904Z,94141.22
2023-05-22T18:27:57.379Z,94142.66
2023-05-22T18:30:24.468Z,94134.81
2023-05-22T18:32:56.703Z,94139.94
2023-05-22T18:35:23.845Z,94137.47
2023-05-22T18:37:50.748Z,94141.25
2023-05-22T18:40:18.897Z,94138.56
2023-05-22T18:42:46.629Z,94144.66
2023-05-22T18:45:16.742Z,94143.41
2023-05-22T18:47:43.964Z,94140.91
2023-05-22T18:50:12.208Z,94139.56
2023-05-22T18:52:39.042Z,94141.53
2023-05-22T18:55:07.179Z,94147.72
2023-05-22T18:57:33.983Z,94144.88
2023-05-22T19:00:01.107Z,94147.97
2023-05-22T19:02:28.262Z,94144.28
2023-05-22T19:04:55.415Z,94149.72
2023-05-22T19:07:22.241Z,94141.84
2023-05-22T19:09:50.175Z,94143.25
2023-05-22T19:12:17.233Z,94138.44
2023-05-22T19:14:44.352Z,94151.78
2023-05-22T19:17:12.411Z,94147.63
2023-05-22T19:19:39.410Z,94150.16
2023-05-22T19:22:08.924Z,94146.81
2023-05-22T19:24:35.675Z,94149.09
2023-05-22T19:27:02.828Z,94147.88
2023-05-22T19:29:29.897Z,94143.59
2023-05-22T19:31:57.008Z,94136.94
2023-05-22T19:34:24.028Z,94139.91
2023-05-22T19:36:51.177Z,94143.09
2023-05-22T19:39:19.104Z,94140.56
2023-05-22T19:41:48.606Z,94143.00
2023-05-22T19:44:18.991Z,94145.59
2023-05-22T19:46:48.201Z,94142.78
2023-05-22T19:49:15.799Z,94145.78
2023-05-22T19:51:42.849Z,94141.91
2023-05-22T19:54:09.915Z,94144.91
2023-05-22T19:56:36.969Z,94147.84
2023-05-22T19:59:03.795Z,94150.44
2023-05-22T20:01:33.348Z,94153.06
2023-05-22T20:04:00.231Z,94154.25
2023-05-22T20:06:29.121Z,94152.25
2023-05-22T20:08:57.539Z,94161.53
2023-05-22T20:11:24.574Z,94168.06
2023-05-22T20:13:51.395Z,94185.00
2023-05-22T20:16:18.215Z,94194.28
2023-05-22T20:18:45.542Z,94199.50
2023-05-22T20:21:12.689Z,94207.13
2023-05-22T20:23:42.220Z,94210.16
2023-05-22T20:26:08.970Z,94213.53
2023-05-22T20:28:35.841Z,94209.16
2023-05-22T20:31:02.614Z,94208.66
2023-05-22T20:33:29.737Z,94218.91
2023-05-22T20:35:56.715Z,94226.06
2023-05-22T20:38:26.397Z,94222.69
2023-05-22T20:40:55.959Z,94232.03
2023-05-22T20:43:23.117Z,94224.94
2023-05-22T20:45:50.117Z,94221.59
2023-05-22T20:48:19.636Z,94223.69
2023-05-22T20:50:49.215Z,94221.91
2023-05-22T20:53:16.966Z,94236.13
2023-05-22T20:55:43.796Z,94230.22
2023-05-22T20:58:10.861Z,94233.31
2023-05-22T21:00:37.685Z,94240.06
2023-05-22T21:03:04.546Z,94230.72
2023-05-22T21:05:32.414Z,94239.94
2023-05-22T21:08:01.948Z,94240.44
2023-05-22T21:10:29.042Z,94243.16
2023-05-22T21:12:58.550Z,94248.22
2023-05-22T21:15:27.082Z,94236.16
2023-05-22T21:17:54.269Z,94237.88
2023-05-22T21:20:21.065Z,94244.53
2023-05-22T21:22:47.996Z,94237.53
2023-05-22T21:25:15.209Z,94244.44
2023-05-22T21:27:42.340Z,94242.88
2023-05-22T21:30:12.145Z,94246.47
2023-05-22T21:32:40.268Z,94254.16
2023-05-22T21:35:07.794Z,94253.16
2023-05-22T21:37:34.610Z,94245.88
2023-05-22T21:40:01.434Z,94254.09
2023-05-22T21:42:41.892Z,94257.25
2023-05-22T21:45:12.571Z,94250.41
2023-05-22T21:47:40.239Z,94247.84
2023-05-22T21:50:07.606Z,94249.38
2023-05-22T21:52:35.431Z,94248.59
2023-05-22T21:55:02.226Z,94251.03
2023-05-22T21:57:29.342Z,94253.19
2023-05-22T21:59:59.256Z,94250.84
2023-05-22T22:02:27.022Z,94253.19
2023-05-22T22:04:54.384Z,94258.72
2023-05-22T22:07:21.494Z,94258.00
2023-05-22T22:09:49.725Z,94259.09
2023-05-22T22:12:16.565Z,94252.16
2023-05-22T22:14:46.144Z,94255.84
2023-05-22T22:17:15.707Z,94258.34
2023-05-22T22:19:45.302Z,94248.19
2023-05-22T22:22:12.414Z,94252.94
2023-05-22T22:24:39.649Z,94250.38
2023-05-22T22:27:06.428Z,94244.84
2023-05-22T22:29:33.300Z,94245.72
2023-05-22T22:32:00.500Z,94259.47
2023-05-22T22:34:27.321Z,94244.75
2023-05-22T22:36:54.433Z,94249.00
2023-05-22T22:39:21.270Z,94254.88
2023-05-22T22:41:48.125Z,94254.91
2023-05-22T22:44:16.257Z,94253.09
2023-05-22T22:46:43.427Z,94252.56
2023-05-22T22:49:10.308Z,94247.31
2023-05-22T22:51:37.545Z,94251.44
2023-05-22T22:54:05.255Z,94254.06
2023-05-22T22:56:33.425Z,94254.00
2023-05-22T22:59:01.405Z,94250.97
2023-05-22T23:01:31.182Z,94249.47
2023-05-22T23:03:59.037Z,94258.00
2023-05-22T23:06:26.128Z,94256.06
2023-05-22T23:08:54.157Z,94253.47
2023-05-22T23:11:21.227Z,94252.06
2023-05-22T23:13:48.097Z,94264.13
2023-05-22T23:16:15.328Z,94255.16
2023-05-22T23:18:42.472Z,94254.09
2023-05-22T23:21:12.486Z,94256.94
2023-05-22T23:23:39.212Z,94250.41
2023-05-22T23:26:06.553Z,94253.84
2023-05-22T23:28:33.937Z,94257.81
2023-05-22T23:31:01.034Z,94260.25
2023-05-22T23:33:28.158Z,94255.66
2023-05-22T23:35:54.938Z,94261.81
2023-05-22T23:38:22.130Z,94255.94
2023-05-22T23:40:49.192Z,94264.66
2023-05-22T23:43:17.274Z,94254.13
2023-05-22T23:45:45.840Z,94252.34
2023-05-22T23:48:15.332Z,94263.63
2023-05-22T23:50:42.578Z,94261.06
2023-05-22T23:53:09.717Z,94263.84
2023-05-22T23:55:36.810Z,94266.69
2023-05-22T23:58:03.576Z,94275.22
